Time;durP1;ratioP1;P1;durP2;ratioP2;P2;SDS_P1;SDS_P2;PMS_P1;PMS_P2;Temp;Humidity;BMP_temperature;BMP_pressure;BME280_temperature;BME280_humidity;BME280_pressure;Samples;Min_cycle;Max_cycle;Signal;HPM_P1;HPM_P2
2024/01/14 00:00:48;;;;;;;0.30;0.20;;;;;;;1.74;86.97;100399.16;5045398;28;21006;-51
2024/01/14 00:03:15;;;;;;;0.20;0.10;;;;;;;1.70;86.67;100402.63;5054329;28;20493;-51
2024/01/14 00:05:41;;;;;;;0.20;0.10;;;;;;;1.80;86.72;100387.88;5054490;28;20943;-51
2024/01/14 00:08:08;;;;;;;0.20;0.10;;;;;;;1.66;87.26;100393.00;5041366;28;20935;-51
2024/01/14 00:13:56;;;;;;;0.20;0.10;;;;;;;1.80;86.98;100384.38;5047937;28;20498;-52
2024/01/14 00:16:23;;;;;;;0.20;0.10;;;;;;;1.80;87.28;100380.03;5041071;28;20478;-51
2024/01/14 00:18:49;;;;;;;0.20;0.10;;;;;;;1.74;87.90;100385.19;5049203;28;20455;-51
2024/01/14 00:21:16;;;;;;;0.20;0.10;;;;;;;1.78;87.77;100385.25;5054213;28;20485;-51
2024/01/14 00:23:42;;;;;;;0.20;0.10;;;;;;;1.68;87.50;100375.56;5047905;28;20479;-51
2024/01/14 00:26:09;;;;;;;0.20;0.10;;;;;;;1.62;87.83;100375.47;5048081;28;20452;-51
2024/01/14 00:28:35;;;;;;;0.20;0.10;;;;;;;1.71;87.69;100372.94;5047370;28;20459;-51
2024/01/14 00:31:21;;;;;;;0.20;0.10;;;;;;;1.75;87.77;100369.47;5022529;28;20460;-51
2024/01/14 00:33:49;;;;;;;0.20;0.10;;;;;;;1.69;88.13;100371.19;5031345;28;20551;-51
2024/01/14 00:36:16;;;;;;;0.20;0.10;;;;;;;1.60;88.58;100364.13;5030814;28;20452;-51
2024/01/14 00:38:44;;;;;;;0.20;0.10;;;;;;;1.67;88.07;100371.19;5031374;28;20447;-51
2024/01/14 00:44:34;;;;;;;2.83;2.77;;;;;;;1.70;87.65;100367.69;5026749;28;20789;-51
2024/01/14 00:47:01;;;;;;;0.20;0.10;;;;;;;1.78;88.02;100360.75;5026465;28;20492;-51
2024/01/14 00:49:27;;;;;;;0.20;0.10;;;;;;;1.68;88.36;100348.47;5025809;28;20535;-51
2024/01/14 00:51:54;;;;;;;0.20;0.10;;;;;;;1.78;87.43;100345.03;5043552;28;20478;-51
2024/01/14 00:54:20;;;;;;;0.20;0.10;;;;;;;1.81;88.13;100344.22;5035627;28;20483;-51
2024/01/14 00:56:47;;;;;;;0.20;0.10;;;;;;;1.80;88.01;100352.94;5046580;28;20467;-51
2024/01/14 00:59:14;;;;;;;0.20;0.10;;;;;;;1.76;87.45;100346.78;5040394;28;20509;-51
2024/01/14 01:01:40;;;;;;;0.20;0.10;;;;;;;1.80;88.54;100347.69;5052990;28;20500;-51
2024/01/14 01:04:07;;;;;;;0.20;0.10;;;;;;;1.76;88.00;100342.41;5052401;28;20451;-51
2024/01/14 01:06:33;;;;;;;0.20;0.10;;;;;;;1.69;88.38;100337.13;5051971;28;20461;-51
2024/01/14 01:09:00;;;;;;;0.20;0.10;;;;;;;1.84;88.27;100333.75;5053397;28;20462;-51
2024/01/14 01:11:26;;;;;;;0.20;0.10;;;;;;;1.84;88.11;100339.88;5047462;28;20493;-51
2024/01/14 01:13:53;;;;;;;0.20;0.10;;;;;;;1.87;87.20;100332.00;5053009;28;20482;-51
2024/01/14 01:16:19;;;;;;;0.20;0.10;;;;;;;1.91;87.70;100331.16;5041428;28;20448;-52
2024/01/14 01:18:46;;;;;;;0.20;0.10;;;;;;;1.86;87.67;100340.75;5041589;28;20452;-51
2024/01/14 01:21:28;;;;;;;0.20;0.10;;;;;;;1.85;87.51;100330.25;5051791;28;20532;-51
2024/01/14 01:30:58;;;;;;;0.20;0.10;;;;;;;1.93;87.90;100331.19;5051524;28;20507;-51
2024/01/14 01:33:25;;;;;;;0.20;0.10;;;;;;;1.91;88.41;100325.03;5047944;28;21067;-51
2024/01/14 01:35:51;;;;;;;0.20;0.10;;;;;;;1.89;87.66;100327.66;5047662;28;20940;-51
2024/01/14 01:38:18;;;;;;;0.20;0.10;;;;;;;1.94;88.27;100323.34;5039809;28;20458;-52
2024/01/14 01:40:46;;;;;;;0.20;0.13;;;;;;;1.88;87.89;100318.03;5052583;28;20475;-51
2024/01/14 01:43:12;;;;;;;0.20;0.10;;;;;;;1.96;88.04;100315.50;5039250;28;20460;-51
2024/01/14 01:45:38;;;;;;;0.40;0.40;;;;;;;2.05;87.29;100311.16;5052294;28;20550;-51
2024/01/14 01:48:06;;;;;;;0.20;0.10;;;;;;;2.01;87.35;100303.28;5051684;28;20465;-51
2024/01/14 01:50:35;;;;;;;0.20;0.10;;;;;;;1.99;87.50;100295.41;5034243;28;20471;-51
2024/01/14 01:53:02;;;;;;;0.20;0.20;;;;;;;1.73;89.08;100297.84;5046196;28;20487;-51
2024/01/14 01:55:29;;;;;;;0.20;0.10;;;;;;;1.85;88.92;100293.56;5044694;28;20451;-51
2024/01/14 01:57:55;;;;;;;0.20;0.20;;;;;;;1.77;89.13;100293.50;5050201;28;20827;-51
2024/01/14 02:00:22;;;;;;;0.20;0.10;;;;;;;1.82;89.14;100299.66;5022678;28;20545;-50
2024/01/14 02:02:49;;;;;;;0.20;0.10;;;;;;;1.98;88.09;100295.41;5050518;28;20460;-51
2024/01/14 02:05:18;;;;;;;0.20;0.10;;;;;;;1.88;88.51;100299.69;5018357;28;20491;-51
2024/01/14 02:07:44;;;;;;;0.20;0.10;;;;;;;1.83;88.13;100293.56;5035042;28;20464;-51
2024/01/14 02:10:11;;;;;;;0.20;0.10;;;;;;;1.78;88.52;100285.69;5051616;28;20458;-51
2024/01/14 02:12:37;;;;;;;0.20;0.10;;;;;;;1.78;89.20;100287.41;5046203;28;21054;-51
2024/01/14 02:15:04;;;;;;;0.20;0.10;;;;;;;1.76;88.76;100289.13;5049058;28;20450;-51
2024/01/14 02:17:31;;;;;;;0.20;0.20;;;;;;;1.81;89.36;100283.94;5052657;28;20463;-51
2024/01/14 02:19:57;;;;;;;0.20;0.10;;;;;;;1.57;89.41;100282.03;5034589;28;20455;-51
2024/01/14 02:22:29;;;;;;;0.20;0.10;;;;;;;1.51;89.79;100272.38;5048993;28;20505;-51
2024/01/14 02:24:56;;;;;;;0.20;0.10;;;;;;;1.54;89.75;100284.63;5046978;28;20504;-51
2024/01/14 02:27:23;;;;;;;0.20;0.10;;;;;;;1.58;89.59;100279.41;5044400;28;20487;-51
2024/01/14 02:29:51;;;;;;;0.20;0.10;;;;;;;1.67;89.32;100274.25;5038496;28;20510;-51
2024/01/14 02:32:17;;;;;;;0.20;0.10;;;;;;;1.69;89.35;100275.13;5049325;28;20958;-51
2024/01/14 02:34:44;;;;;;;0.20;0.10;;;;;;;1.55;89.40;100270.66;5048079;28;20496;-50
2024/01/14 02:37:10;;;;;;;0.20;0.10;;;;;;;1.58;89.50;100270.66;5048777;28;20460;-50
2024/01/14 02:39:37;;;;;;;0.20;0.10;;;;;;;1.58;89.60;100279.41;5049074;28;20943;-51
2024/01/14 02:42:03;;;;;;;0.20;0.10;;;;;;;1.64;90.02;100270.72;5048340;28;20482;-51
2024/01/14 02:44:30;;;;;;;0.20;0.10;;;;;;;1.46;90.06;100263.59;5042752;28;20855;-51
2024/01/14 02:46:57;;;;;;;0.20;0.10;;;;;;;1.43;89.59;100263.59;5051015;28;20533;-51
2024/01/14 02:49:23;;;;;;;0.20;0.10;;;;;;;1.61;89.59;100260.22;5042766;28;20543;-51
2024/01/14 02:51:50;;;;;;;0.20;0.10;;;;;;;1.53;89.91;100256.69;5035811;28;20482;-51
2024/01/14 02:54:16;;;;;;;0.20;0.10;;;;;;;1.58;89.37;100262.81;5042619;28;20490;-52
2024/01/14 02:56:42;;;;;;;0.20;0.10;;;;;;;1.57;89.98;100263.69;5037191;28;20442;-51
2024/01/14 02:59:09;;;;;;;0.20;0.10;;;;;;;1.51;90.03;100253.16;5040963;28;20458;-51
2024/01/14 03:01:44;;;;;;;0.20;0.10;;;;;;;1.65;89.63;100248.91;5049020;28;20485;-51
2024/01/14 03:04:10;;;;;;;0.20;0.10;;;;;;;1.67;88.96;100250.66;5051821;28;20443;-51
2024/01/14 03:06:37;;;;;;;0.20;0.10;;;;;;;1.67;89.44;100257.66;5035891;28;20462;-51
2024/01/14 03:09:06;;;;;;;0.20;0.10;;;;;;;1.54;89.68;100255.81;5043964;28;20520;-51
2024/01/14 03:11:33;;;;;;;0.20;0.10;;;;;;;1.64;89.32;100245.38;5050613;28;20482;-52
2024/01/14 03:13:59;;;;;;;0.20;0.10;;;;;;;1.71;89.39;100239.34;5051493;28;20486;-51
2024/01/14 03:16:26;;;;;;;0.20;0.10;;;;;;;1.66;89.50;100237.56;5055519;28;20550;-51
2024/01/14 03:18:52;;;;;;;0.20;0.10;;;;;;;1.60;89.75;100241.00;5042429;28;20818;-51
2024/01/14 03:21:19;;;;;;;0.20;0.10;;;;;;;1.68;89.23;100243.69;5055456;28;20531;-51
2024/01/14 03:23:46;;;;;;;0.20;0.10;;;;;;;1.64;89.13;100227.03;5054821;28;20443;-51
2024/01/14 03:26:12;;;;;;;0.20;0.10;;;;;;;1.73;89.29;100226.25;5047472;28;20463;-51
2024/01/14 03:28:39;;;;;;;0.20;0.10;;;;;;;1.78;89.03;100227.13;5048930;28;20537;-51
2024/01/14 03:31:08;;;;;;;0.30;0.20;;;;;;;1.70;88.50;100224.47;5050788;28;20475;-51
2024/01/14 03:33:34;;;;;;;0.20;0.10;;;;;;;1.71;89.08;100225.34;5041793;28;20547;-53
2024/01/14 03:36:01;;;;;;;0.20;0.10;;;;;;;1.72;89.14;100214.00;5054661;28;20454;-51
2024/01/14 03:38:28;;;;;;;0.20;0.10;;;;;;;1.76;89.02;100216.66;5046931;28;20501;-51
2024/01/14 03:40:54;;;;;;;0.20;0.10;;;;;;;1.71;88.67;100215.75;5054722;28;21073;-51
2024/01/14 03:43:21;;;;;;;0.20;0.10;;;;;;;1.72;88.58;100211.38;5055065;28;20485;-51
2024/01/14 03:45:47;;;;;;;0.20;0.10;;;;;;;1.72;88.76;100214.88;5037148;28;20968;-51
2024/01/14 03:48:13;;;;;;;0.20;0.10;;;;;;;1.66;89.04;100214.00;5052443;28;20540;-51
2024/01/14 03:50:40;;;;;;;1.03;1.03;;;;;;;1.72;89.36;100203.53;5041129;28;20553;-51
2024/01/14 03:53:07;;;;;;;0.20;0.10;;;;;;;1.68;89.22;100214.88;5048599;28;20494;-51
2024/01/14 03:55:33;;;;;;;0.20;0.10;;;;;;;1.71;88.73;100207.03;5046018;28;20455;-51
2024/01/14 03:58:00;;;;;;;0.20;0.10;;;;;;;1.63;89.21;100212.19;5053573;28;20484;-51
2024/01/14 04:00:26;;;;;;;0.20;0.10;;;;;;;1.61;89.19;100213.94;5045807;28;20452;-51
2024/01/14 04:02:52;;;;;;;0.20;0.10;;;;;;;1.64;89.73;100194.75;5047651;28;20462;-51
2024/01/14 04:05:19;;;;;;;0.20;0.10;;;;;;;1.62;89.51;100193.84;5049722;28;20463;-51
2024/01/14 04:07:45;;;;;;;0.20;0.10;;;;;;;1.63;89.16;100188.63;5053626;28;20454;-51
2024/01/14 04:10:12;;;;;;;0.20;0.10;;;;;;;1.61;89.46;100184.25;5053766;28;20465;-51
2024/01/14 04:12:40;;;;;;;0.20;0.10;;;;;;;1.48;89.71;100183.28;5054232;28;20538;-50
2024/01/14 04:15:07;;;;;;;0.20;0.10;;;;;;;1.40;89.30;100182.38;5052771;28;20543;-51
2024/01/14 04:17:33;;;;;;;0.20;0.10;;;;;;;1.34;90.59;100185.81;5054096;28;20450;-51
2024/01/14 04:20:00;;;;;;;0.20;0.10;;;;;;;1.16;90.44;100190.94;5036619;28;20957;-51
2024/01/14 04:22:27;;;;;;;0.20;0.10;;;;;;;1.20;90.91;100182.22;5052156;28;20479;-51
2024/01/14 04:24:53;;;;;;;0.20;0.10;;;;;;;1.22;90.74;100169.16;5054155;28;20445;-51
2024/01/14 04:27:19;;;;;;;0.20;0.10;;;;;;;1.32;91.09;100177.09;5053089;28;20461;-51
2024/01/14 04:29:46;;;;;;;0.20;0.10;;;;;;;1.28;91.05;100171.84;5051287;28;20455;-51
2024/01/14 04:32:12;;;;;;;0.20;0.10;;;;;;;1.20;90.30;100184.84;5053951;28;20844;-50
2024/01/14 04:34:39;;;;;;;0.20;0.10;;;;;;;1.17;90.34;100171.75;5048373;28;20494;-51
2024/01/14 04:37:05;;;;;;;0.20;0.10;;;;;;;1.23;90.50;100168.28;5050363;28;20452;-51
2024/01/14 04:39:32;;;;;;;0.20;0.10;;;;;;;1.32;91.03;100173.59;5052927;28;20494;-51
2024/01/14 04:41:58;;;;;;;0.20;0.10;;;;;;;1.23;90.66;100169.16;5050641;28;20898;-52
2024/01/14 04:44:25;;;;;;;0.20;0.10;;;;;;;1.37;90.03;100171.88;5043547;28;20508;-51
2024/01/14 04:46:51;;;;;;;0.30;0.20;;;;;;;1.33;90.35;100168.38;5050274;28;20451;-51
2024/01/14 04:49:18;;;;;;;0.27;0.17;;;;;;;1.33;89.97;100175.34;5043461;28;20453;-51
2024/01/14 04:51:44;;;;;;;0.20;0.10;;;;;;;1.27;90.27;100163.09;5040960;28;20561;-51
2024/01/14 04:54:11;;;;;;;0.20;0.10;;;;;;;1.38;90.26;100165.81;5044466;28;20491;-51
2024/01/14 04:56:39;;;;;;;0.20;0.10;;;;;;;1.20;90.84;100156.06;5053672;28;20474;-51
2024/01/14 04:59:06;;;;;;;0.20;0.10;;;;;;;1.32;91.01;100166.63;5052705;28;20462;-51
2024/01/14 05:01:32;;;;;;;0.20;0.10;;;;;;;1.24;91.35;100167.44;5045392;28;20475;-51
2024/01/14 05:03:58;;;;;;;0.20;0.10;;;;;;;1.19;90.95;100176.13;5039626;28;20538;-51
2024/01/14 05:06:25;;;;;;;0.20;0.10;;;;;;;1.19;91.45;100165.66;5044724;28;20530;-51
2024/01/14 05:08:52;;;;;;;0.20;0.10;;;;;;;1.10;91.59;100165.59;5053212;28;20466;-51
2024/01/14 05:11:18;;;;;;;0.30;0.10;;;;;;;1.25;91.28;100154.38;5039687;28;20564;-51
2024/01/14 05:13:45;;;;;;;0.20;0.10;;;;;;;1.23;90.41;100163.91;5053134;28;20518;-50
2024/01/14 05:16:11;;;;;;;0.20;0.10;;;;;;;1.29;90.54;100165.72;5042633;28;20478;-51
2024/01/14 05:18:38;;;;;;;0.20;0.10;;;;;;;1.25;90.92;100162.22;5037044;28;20870;-51
2024/01/14 05:21:06;;;;;;;0.20;0.10;;;;;;;1.09;91.28;100155.97;5050321;28;20507;-51
2024/01/14 05:23:32;;;;;;;0.20;0.10;;;;;;;1.10;90.90;100149.03;5053279;28;20455;-51
2024/01/14 05:26:02;;;;;;;0.20;0.10;;;;;;;1.16;90.83;100143.81;5049472;28;20507;-51
2024/01/14 05:28:29;;;;;;;0.20;0.10;;;;;;;1.02;91.17;100145.47;5052642;28;21014;-51
2024/01/14 05:30:55;;;;;;;0.20;0.10;;;;;;;1.06;91.68;100145.50;5052805;28;20493;-51
2024/01/14 05:33:22;;;;;;;0.20;0.10;;;;;;;1.01;92.04;100141.97;5052952;28;20458;-51
2024/01/14 05:35:48;;;;;;;0.20;0.10;;;;;;;1.08;91.31;100137.66;5052453;28;20454;-50
2024/01/14 05:38:15;;;;;;;0.20;0.10;;;;;;;1.02;91.77;100140.22;5051768;28;20463;-51
2024/01/14 05:40:41;;;;;;;0.20;0.10;;;;;;;1.15;91.11;100142.06;5036218;28;20558;-51
2024/01/14 05:43:08;;;;;;;0.20;0.10;;;;;;;1.11;90.71;100140.31;5042338;28;20466;-51
2024/01/14 05:45:34;;;;;;;0.20;0.10;;;;;;;1.25;91.39;100128.19;5048137;28;20483;-52
2024/01/14 05:48:01;;;;;;;0.20;0.10;;;;;;;1.27;91.00;100125.56;5052816;28;20938;-52
2024/01/14 05:50:27;;;;;;;0.20;0.10;;;;;;;1.34;91.05;100135.19;5050985;28;20481;-51
2024/01/14 05:52:54;;;;;;;0.20;0.10;;;;;;;1.36;90.60;100134.34;5039468;28;20841;-51
2024/01/14 05:55:20;;;;;;;0.20;0.10;;;;;;;1.33;90.03;100136.94;5052578;28;20498;-51
2024/01/14 05:57:47;;;;;;;0.20;0.10;;;;;;;1.37;90.34;100130.88;5051323;28;20455;-51
2024/01/14 06:00:14;;;;;;;0.20;0.10;;;;;;;1.24;90.78;100120.31;5039562;28;20478;-51
2024/01/14 06:02:40;;;;;;;0.20;0.10;;;;;;;1.26;89.91;100123.81;5047460;28;20450;-51
2024/01/14 06:05:07;;;;;;;0.20;0.10;;;;;;;1.19;89.81;100128.13;5040784;28;20447;-51
2024/01/14 06:07:33;;;;;;;0.20;0.10;;;;;;;1.13;90.20;100125.50;5051375;28;20546;-51
2024/01/14 06:10:00;;;;;;;0.20;0.10;;;;;;;0.99;90.22;100114.94;5049066;28;20454;-51
2024/01/14 06:12:26;;;;;;;0.20;0.10;;;;;;;0.96;91.35;100103.53;5053165;28;21002;-51
2024/01/14 06:14:53;;;;;;;0.20;0.10;;;;;;;0.73;91.27;100104.25;5050958;28;20481;-51
2024/01/14 06:17:19;;;;;;;0.20;0.10;;;;;;;0.72;91.58;100107.75;5051350;28;20459;-51
2024/01/14 06:19:46;;;;;;;0.20;0.10;;;;;;;0.56;92.06;100098.03;5037513;28;20460;-51
2024/01/14 06:22:12;;;;;;;0.33;0.33;;;;;;;0.41;92.94;100087.41;5047209;28;20507;-51
2024/01/14 06:24:39;;;;;;;0.20;0.10;;;;;;;0.52;92.84;100094.47;5051208;28;20829;-50
2024/01/14 06:27:06;;;;;;;0.20;0.10;;;;;;;0.56;92.20;100092.78;5050222;28;20457;-51
2024/01/14 06:29:32;;;;;;;0.20;0.10;;;;;;;0.59;91.77;100095.44;5052174;28;20459;-51
2024/01/14 06:31:59;;;;;;;0.20;0.10;;;;;;;0.67;91.76;100091.13;5038074;28;20990;-51
2024/01/14 06:34:25;;;;;;;0.20;0.10;;;;;;;0.59;91.69;100088.47;5046316;28;20490;-52
2024/01/14 06:36:52;;;;;;;0.20;0.10;;;;;;;0.68;91.24;100082.41;5050878;28;20524;-51
2024/01/14 06:39:18;;;;;;;0.20;0.10;;;;;;;0.59;91.36;100084.97;5043616;28;20448;-52
2024/01/14 06:41:45;;;;;;;0.20;0.10;;;;;;;0.50;92.12;100079.66;5046707;28;21025;-51
2024/01/14 06:44:14;;;;;;;0.20;0.10;;;;;;;0.44;92.68;100080.47;5049056;28;20532;-52
2024/01/14 06:46:43;;;;;;;0.20;0.10;;;;;;;0.40;92.43;100086.53;5036053;28;20474;-52
2024/01/14 06:49:10;;;;;;;0.20;0.10;;;;;;;0.44;92.57;100090.94;5040924;28;20454;-52
2024/01/14 06:51:43;;;;;;;0.20;0.10;;;;;;;0.49;91.84;100090.97;5041302;28;20988;-50
2024/01/14 06:54:10;;;;;;;0.20;0.10;;;;;;;0.52;92.44;100097.09;5041675;28;20487;-51
2024/01/14 06:56:47;;;;;;;0.20;0.10;;;;;;;0.51;91.61;100095.34;5044141;28;20459;-51
2024/01/14 06:59:21;;;;;;;0.20;0.10;;;;;;;0.53;91.34;100087.50;5044658;28;20449;-51
2024/01/14 07:01:49;;;;;;;0.20;0.10;;;;;;;0.30;91.61;100079.50;5032084;28;20909;-51
2024/01/14 07:04:16;;;;;;;0.20;0.10;;;;;;;0.42;92.53;100079.59;5044835;28;20451;-52
2024/01/14 07:06:42;;;;;;;0.20;0.10;;;;;;;0.43;92.75;100088.31;5042947;28;21016;-51
2024/01/14 07:09:10;;;;;;;0.20;0.10;;;;;;;0.52;92.46;100080.53;5032948;28;20455;-52
2024/01/14 07:11:38;;;;;;;0.20;0.10;;;;;;;0.62;91.42;100082.38;5037578;28;20487;-51
2024/01/14 07:14:04;;;;;;;0.20;0.10;;;;;;;0.54;91.50;100068.34;5051554;28;20497;-52
2024/01/14 07:16:30;;;;;;;0.20;0.10;;;;;;;0.47;92.10;100075.28;5039618;28;20450;-52
2024/01/14 07:18:57;;;;;;;0.20;0.10;;;;;;;0.43;92.86;100072.63;5038238;28;20458;-52
2024/01/14 07:21:24;;;;;;;0.20;0.10;;;;;;;0.32;93.10;100072.53;5051178;28;20475;-52
2024/01/14 07:23:51;;;;;;;0.20;0.10;;;;;;;0.40;92.88;100072.56;5038303;28;20967;-52
2024/01/14 07:26:18;;;;;;;0.20;0.10;;;;;;;0.41;92.82;100069.09;5051356;28;20462;-52
2024/01/14 07:28:51;;;;;;;0.20;0.10;;;;;;;0.41;93.34;100067.41;5039177;28;20447;-52
2024/01/14 07:31:21;;;;;;;0.20;0.10;;;;;;;0.27;93.28;100071.59;5042834;28;20475;-52
2024/01/14 07:33:52;;;;;;;0.20;0.10;;;;;;;0.31;93.13;100077.75;5044939;28;20451;-51
2024/01/14 07:36:19;;;;;;;0.20;0.10;;;;;;;0.24;93.63;100068.97;5049622;28;20529;-51
2024/01/14 07:38:46;;;;;;;0.20;0.10;;;;;;;0.22;93.75;100079.41;5047131;28;20448;-52
2024/01/14 07:41:13;;;;;;;0.20;0.10;;;;;;;0.37;93.51;100080.41;5039131;28;20835;-51
2024/01/14 07:43:40;;;;;;;0.20;0.10;;;;;;;0.33;93.84;100073.41;5047044;28;20463;-51
2024/01/14 07:46:08;;;;;;;0.20;0.10;;;;;;;0.24;94.11;100068.97;5044019;28;21009;-51
2024/01/14 07:48:35;;;;;;;0.40;0.40;;;;;;;0.39;93.91;100069.09;5020625;28;20828;-51
2024/01/14 07:51:02;;;;;;;0.20;0.10;;;;;;;0.50;93.50;100074.41;5040105;28;20498;-51
2024/01/14 07:53:29;;;;;;;0.20;0.10;;;;;;;0.57;93.79;100068.41;5044551;28;20448;-51
2024/01/14 07:55:56;;;;;;;0.20;0.10;;;;;;;0.68;93.26;100069.31;5043110;28;20486;-51
2024/01/14 07:58:22;;;;;;;0.20;0.10;;;;;;;0.45;93.31;100065.66;5037577;28;20975;-52
2024/01/14 08:00:48;;;;;;;0.20;0.10;;;;;;;0.58;93.47;100073.63;5042118;28;20477;-51
2024/01/14 08:03:27;;;;;;;0.20;0.10;;;;;;;0.72;93.27;100073.75;5041604;28;20504;-51
2024/01/14 08:05:54;;;;;;;0.20;0.10;;;;;;;0.67;92.96;100064.97;5054993;28;20453;-51
2024/01/14 08:08:21;;;;;;;0.20;0.10;;;;;;;0.79;92.33;100059.81;5041677;28;20465;-51
2024/01/14 08:10:48;;;;;;;0.20;0.10;;;;;;;0.81;92.17;100057.22;5043043;28;21018;-51
2024/01/14 08:13:15;;;;;;;0.20;0.10;;;;;;;0.86;92.54;100053.78;5054701;28;20458;-51
2024/01/14 08:15:41;;;;;;;0.40;0.40;;;;;;;0.94;91.80;100052.94;5041165;28;21003;-52
2024/01/14 08:18:26;;;;;;;0.20;0.10;;;;;;;0.92;91.50;100052.94;5043994;28;20496;-51
2024/01/14 08:20:52;;;;;;;0.20;0.10;;;;;;;0.89;91.88;100055.53;5051291;28;21220;-51
2024/01/14 08:23:19;;;;;;;0.20;0.10;;;;;;;1.04;91.98;100055.63;5045500;28;20749;-51
2024/01/14 08:25:46;;;;;;;0.20;0.10;;;;;;;1.00;91.94;100059.09;5038282;28;20457;-51
2024/01/14 08:28:13;;;;;;;0.20;0.10;;;;;;;1.08;91.66;100056.53;5045344;28;20568;-51
2024/01/14 08:30:40;;;;;;;0.20;0.10;;;;;;;1.02;91.27;100059.13;5051431;28;20838;-51
2024/01/14 08:33:07;;;;;;;0.20;0.10;;;;;;;1.14;90.88;100062.69;5027227;28;20450;-51
2024/01/14 08:35:33;;;;;;;0.20;0.10;;;;;;;1.05;91.68;100066.97;5048488;28;20895;-51
2024/01/14 08:38:00;;;;;;;0.20;0.10;;;;;;;1.07;91.37;100063.50;5050005;28;20462;-51
2024/01/14 08:40:26;;;;;;;0.20;0.10;;;;;;;1.06;91.63;100055.63;5047098;28;20447;-51
2024/01/14 08:42:53;;;;;;;0.20;0.10;;;;;;;1.04;91.66;100060.00;5053777;28;20459;-50
2024/01/14 08:45:19;;;;;;;0.20;0.10;;;;;;;0.93;91.64;100051.19;5052923;28;20823;-51
2024/01/14 08:47:46;;;;;;;0.20;0.10;;;;;;;1.05;91.62;100056.50;5049423;28;20547;-51
2024/01/14 08:50:12;;;;;;;0.20;0.10;;;;;;;1.16;91.83;100053.09;5040182;28;21009;-50
2024/01/14 08:52:39;;;;;;;0.20;0.10;;;;;;;1.01;91.26;100052.13;5036104;28;20465;-51
2024/01/14 08:55:08;;;;;;;0.20;0.10;;;;;;;1.14;91.09;100054.81;5040153;28;20484;-51
2024/01/14 08:57:35;;;;;;;0.20;0.10;;;;;;;1.03;91.91;100056.50;5034849;28;20962;-50
2024/01/14 09:00:01;;;;;;;0.20;0.10;;;;;;;0.97;92.23;100047.75;5033832;28;20543;-50
2024/01/14 09:02:29;;;;;;;0.20;0.10;;;;;;;0.80;91.67;100043.25;5052439;28;20832;-51
2024/01/14 09:04:55;;;;;;;0.20;0.10;;;;;;;1.08;91.89;100048.66;5041284;28;21030;-51
2024/01/14 09:07:22;;;;;;;0.30;0.20;;;;;;;1.04;91.25;100057.38;5041576;28;20481;-51
2024/01/14 09:09:48;;;;;;;0.20;0.10;;;;;;;1.03;91.41;100050.41;5047708;28;20462;-51
2024/01/14 09:12:15;;;;;;;0.20;0.10;;;;;;;0.97;91.66;100052.97;5041910;28;20528;-51
2024/01/14 09:14:42;;;;;;;0.20;0.10;;;;;;;0.93;91.21;100041.59;5052831;28;20987;-51
2024/01/14 09:17:08;;;;;;;0.20;0.10;;;;;;;0.85;91.95;100049.41;5051429;28;20455;-51
2024/01/14 09:19:37;;;;;;;0.20;0.10;;;;;;;0.95;91.76;100047.72;5052710;28;20868;-51
2024/01/14 09:22:04;;;;;;;0.20;0.10;;;;;;;0.88;91.99;100053.78;5040787;28;20492;-51
2024/01/14 09:24:30;;;;;;;0.20;0.10;;;;;;;1.00;91.24;100053.00;5051118;28;20447;-51
2024/01/14 09:26:57;;;;;;;0.20;0.10;;;;;;;0.83;91.41;100050.28;5052472;28;20462;-51
2024/01/14 09:29:24;;;;;;;0.20;0.10;;;;;;;0.96;92.38;100048.59;5042856;28;20538;-50
2024/01/14 09:31:50;;;;;;;0.20;0.10;;;;;;;0.96;91.25;100036.41;5041833;28;20474;-52
2024/01/14 09:34:17;;;;;;;0.20;0.10;;;;;;;1.17;91.35;100039.13;5052936;28;20461;-51
2024/01/14 09:36:44;;;;;;;0.20;0.10;;;;;;;1.29;90.67;100033.09;5050819;28;20451;-50
2024/01/14 09:39:11;;;;;;;0.20;0.10;;;;;;;1.47;90.02;100032.28;5046536;28;20478;-52
2024/01/14 09:41:43;;;;;;;0.20;0.10;;;;;;;1.33;90.09;100036.59;5051224;28;20478;-50
2024/01/14 09:44:15;;;;;;;0.20;0.10;;;;;;;1.55;89.75;100034.94;5045103;28;20455;-51
2024/01/14 09:46:46;;;;;;;0.20;0.10;;;;;;;1.55;89.61;100027.97;5046685;28;20439;-51
2024/01/14 09:49:15;;;;;;;0.20;0.10;;;;;;;1.55;89.51;100030.56;5042484;28;20458;-50
2024/01/14 09:51:47;;;;;;;0.20;0.10;;;;;;;1.76;88.62;100032.38;5039568;28;20544;-50
2024/01/14 09:54:14;;;;;;;0.20;0.10;;;;;;;1.61;89.06;100037.56;5042531;28;20968;-50
2024/01/14 09:56:41;;;;;;;0.20;0.10;;;;;;;1.63;89.62;100033.19;5046006;28;20491;-51
2024/01/14 09:59:09;;;;;;;0.20;0.10;;;;;;;1.75;88.63;100028.00;5043877;28;20451;-50
2024/01/14 10:01:38;;;;;;;0.20;0.10;;;;;;;1.78;88.65;100034.16;5039351;28;20471;-51
2024/01/14 10:04:06;;;;;;;0.20;0.10;;;;;;;1.91;88.87;100029.78;5041619;28;20961;-51
2024/01/14 10:06:32;;;;;;;0.20;0.10;;;;;;;1.78;87.59;100022.75;5048362;28;20454;-50
2024/01/14 10:08:59;;;;;;;0.20;0.10;;;;;;;1.74;87.96;100021.88;5044086;28;20508;-50
2024/01/14 10:11:26;;;;;;;0.20;0.10;;;;;;;1.70;87.89;100016.66;5038813;28;20835;-50
2024/01/14 10:13:52;;;;;;;0.20;0.10;;;;;;;1.67;88.50;100011.41;5044358;28;20454;-50
2024/01/14 10:16:19;;;;;;;0.20;0.10;;;;;;;1.67;88.21;100012.28;5039348;28;20486;-50
2024/01/14 10:19:06;;;;;;;0.20;0.10;;;;;;;1.73;87.28;100009.66;5039465;28;20509;-51
2024/01/14 10:21:33;;;;;;;0.20;0.10;;;;;;;1.73;87.62;100000.94;5044633;28;20475;-51
2024/01/14 10:24:03;;;;;;;0.20;0.10;;;;;;;1.45;88.37;100006.09;5046680;28;20825;-51
2024/01/14 10:26:30;;;;;;;0.20;0.10;;;;;;;1.81;87.86;100004.47;5042132;28;20535;-52
2024/01/14 10:29:01;;;;;;;0.20;0.10;;;;;;;1.52;89.11;100003.50;5038773;28;20447;-50
2024/01/14 10:31:30;;;;;;;0.20;0.10;;;;;;;1.67;89.08;99988.72;5042382;28;20464;-51
2024/01/14 10:33:59;;;;;;;0.20;0.10;;;;;;;1.98;88.21;99983.50;5045806;28;20991;-52
2024/01/14 10:36:28;;;;;;;0.20;0.10;;;;;;;2.17;86.91;99981.75;5050761;28;20487;-58
2024/01/14 10:38:57;;;;;;;0.20;0.20;;;;;;;1.98;87.07;99980.91;5046716;28;20452;-51
2024/01/14 10:41:24;;;;;;;0.20;0.10;;;;;;;2.10;86.56;99972.16;5043761;28;20534;-52
2024/01/14 10:43:51;;;;;;;0.20;0.10;;;;;;;1.96;86.82;99969.53;5046323;28;20538;-51
2024/01/14 10:46:18;;;;;;;0.20;0.10;;;;;;;1.96;86.96;99964.28;5044314;28;20491;-51
2024/01/14 10:49:17;;;;;;;0.20;0.10;;;;;;;1.97;86.15;99961.69;5038547;28;20455;-52
2024/01/14 10:51:51;;;;;;;0.20;0.10;;;;;;;2.07;87.11;99965.19;5034909;28;20484;-50
2024/01/14 10:54:23;;;;;;;0.20;0.10;;;;;;;2.00;87.26;99959.03;5043507;28;20534;-50
2024/01/14 10:57:03;;;;;;;0.20;0.10;;;;;;;1.90;87.04;99951.16;5032689;28;20494;-51
2024/01/14 10:59:35;;;;;;;0.20;0.10;;;;;;;1.91;87.50;99953.78;5045153;28;20450;-52
2024/01/14 11:02:15;;;;;;;0.20;0.10;;;;;;;2.00;86.90;99951.19;5040409;28;20837;-51
2024/01/14 11:04:43;;;;;;;0.20;0.10;;;;;;;2.24;86.64;99949.44;5039770;28;20442;-51
2024/01/14 11:07:12;;;;;;;0.20;0.10;;;;;;;2.47;85.57;99952.94;5041042;28;20927;-52
2024/01/14 11:09:43;;;;;;;0.20;0.10;;;;;;;2.26;84.67;99945.94;5044899;28;20451;-51
2024/01/14 11:12:21;;;;;;;0.20;0.10;;;;;;;1.93;86.06;99938.97;5043392;28;20550;-51
2024/01/14 11:15:10;;;;;;;0.20;0.10;;;;;;;2.00;85.10;99938.06;5042892;28;20962;-51
2024/01/14 11:18:09;;;;;;;0.20;0.10;;;;;;;2.10;85.51;99938.97;5035129;28;20443;-50
2024/01/14 11:20:41;;;;;;;0.20;0.10;;;;;;;1.95;86.38;99931.97;5038205;28;20462;-51
2024/01/14 11:23:31;;;;;;;0.20;0.10;;;;;;;1.81;85.78;99924.97;5051840;28;20447;-51
2024/01/14 11:25:58;;;;;;;0.20;0.10;;;;;;;1.94;86.49;99917.13;5038353;28;20447;-52
2024/01/14 11:28:26;;;;;;;0.20;0.10;;;;;;;1.97;87.08;99911.88;5038935;28;20479;-51
2024/01/14 11:30:59;;;;;;;0.20;0.10;;;;;;;1.89;86.51;99903.13;5045124;28;20480;-51
2024/01/14 11:33:46;;;;;;;0.20;0.10;;;;;;;2.10;86.72;99902.25;5045236;28;20447;-51
2024/01/14 11:36:33;;;;;;;0.20;0.10;;;;;;;1.75;86.24;99895.25;5050260;28;20478;-51
2024/01/14 11:39:05;;;;;;;0.20;0.10;;;;;;;1.57;87.60;99890.03;5049418;28;20459;-52
2024/01/14 11:41:34;;;;;;;0.20;0.10;;;;;;;1.72;87.32;99878.69;5048552;28;20566;-51
2024/01/14 11:44:10;;;;;;;0.20;0.10;;;;;;;1.94;86.29;99874.31;5042329;28;20454;-51
2024/01/14 11:46:46;;;;;;;0.20;0.10;;;;;;;1.85;86.17;99872.56;5041835;28;20447;-52
2024/01/14 11:49:21;;;;;;;0.20;0.10;;;;;;;1.96;85.92;99870.81;5044624;28;20451;-58
2024/01/14 11:51:57;;;;;;;0.20;0.10;;;;;;;1.83;86.47;99860.34;5048480;28;20471;-50